Flight Track Log - Related Links

Times and Time Zones

All times are in EDT time to prevent confusion due to time zone crossing. See the SWA1108 flight status page for this flight to view local times or setup timezone preferences in your user account.

Time Position Orientation Groundspeed Altitude Reporting Facility
EDT Latitude Longitude Course Direction KTS MPH feet Rate Location/Type
Thu 03:36:53 PM 32.7667 -96.7667 140° Southeast 206 237 5,900  Level Dallas / Fort Worth TRACON
Thu 03:37:53 PM 32.7500 -96.7167 112° Southeast 252 290 7,900 1,873 Climbing Dallas / Fort Worth TRACON
Thu 03:40:18 PM 32.9086 -96.7231 358° North 274 315 12,300 2,010 Climbing Fort Worth Center
Thu 03:41:00 PM 33.3370 -96.7626 North  Level FlightAware Approximate
Thu 03:41:19 PM 33.0008 -96.7619 341° North 307 353 14,800  Level Fort Worth Center
Thu 03:42:18 PM 33.0825 -96.7986 339° North 333 383 17,000 1,916 Climbing Fort Worth Center
Thu 03:43:18 PM 33.1806 -96.8425 339° North 346 398 18,600 2,250 Climbing Fort Worth Center
Thu 03:44:18 PM 33.2664 -96.8817 339° North 351 404 21,500 2,100 Climbing Fort Worth Center
Thu 03:46:18 PM 33.4733 -96.9528 344° North 381 438 24,900 2,133 Climbing Fort Worth Center
Thu 03:47:18 PM 33.5858 -96.9122 17° North 397 457 27,900 2,900 Climbing Fort Worth Center
Thu 03:48:18 PM 33.6942 -96.8667 19° North 407 468 30,700 2,000 Climbing Fort Worth Center
Thu 03:49:18 PM 33.8067 -96.8236 18° North 421 484 31,900 1,100 Climbing Fort Worth Center
Thu 03:50:18 PM 33.9275 -96.7753 18° North 439 505 32,900 550 Climbing Fort Worth Center
Thu 03:51:18 PM 34.0650 -96.7239 17° North 456 525 33,000 50 Climbing Fort Worth Center
Thu 03:52:18 PM 34.1669 -96.6806 19° North 449 517 33,000  Level Fort Worth Center
Thu 03:54:18 PM 34.4147 -96.5803 18° North 459 528 33,000  Level Fort Worth Center
Thu 03:55:18 PM 34.5375 -96.5261 20° North 465 535 33,000  Level Fort Worth Center
Thu 03:56:18 PM 34.6600 -96.4694 21° North 465 535 33,000  Level Fort Worth Center
Thu 03:57:18 PM 34.7828 -96.4175 19° North 465 535 33,000 -550 Level Fort Worth Center
Thu 03:58:18 PM 34.9033 -96.3653 20° North 465 535 31,900 -2,000 Descending Fort Worth Center
Thu 03:59:18 PM 35.0219 -96.3108 21° North 465 535 29,000 550 Descending Fort Worth Center
Thu 04:00:18 PM 35.1547 -96.2556 19° North 465 535 33,000 -3,350 Climbing Fort Worth Center
Thu 04:01:18 PM 35.2711 -96.2006 21° North 459 528 22,300 -5,333 Descending Fort Worth Center
Thu 04:03:00 PM 35.4475 -96.1272 19° North 413 475 18,600 -2,577 Descending Kansas City Center
Thu 04:04:01 PM 35.5528 -96.1139 North 387 445 15,300 -3,344 Descending Kansas City Center
Thu 04:05:02 PM 35.6611 -96.0997 North 391 450 11,800 -1,973 Descending Kansas City Center
Thu 04:06:27 PM 35.8050 -96.0839 North 302 348 10,500 -1,104 Descending Kansas City Center
Thu 04:07:07 PM 35.8581 -96.0747 North 309 356 9,500 -1,574 Descending Kansas City Center
Thu 04:07:28 PM 35.8881 -96.0733 North 291 335 8,900 -1,238 Descending Kansas City Center
Thu 04:08:10 PM 35.9408 -96.0636 North 301 346 8,200 -1,500 Descending Kansas City Center
Thu 04:08:28 PM 35.9689 -96.0631 North 294 338 7,400 -1,726 Descending Kansas City Center
Thu 04:09:23 PM 36.0414 -96.0514 North 283 326 6,100 -1,075 Descending Kansas City Center
Thu 04:10:14 PM 36.0964 -96.0439 North 286 329 5,500 -667 Descending Kansas City Center
Thu 04:10:35 PM 36.1222 -96.0408 North 243 280 5,300 -1,065 Descending Kansas City Center
Thu 04:11:16 PM 36.1569 -96.0364 North 241 277 4,400 -1,355 Descending Kansas City Center
Thu 04:11:37 PM 36.1825 -96.0333 North 176 203 3,900 -1,143 Descending Kansas City Center
Thu 04:12:19 PM 36.1964 -96.0128 50° Northeast 192 221 3,200 -1,223 Descending Kansas City Center
Thu 04:13:20 PM 36.1942 -95.9569 93° East 151 174 1,800 -1,125 Descending Kansas City Center
Thu 04:14:27 PM 36.1947 -95.9075 89° East 128 147 800 -528 Descending Kansas City Center
Thu 04:15:25 PM 36.1956 -95.8672 89° East 138 159 700 -103 Descending Kansas City Center

Login

Don't have an account? Register now (free) for customized features, flight alerts, and more!